Thunder radar more information blitzortung!


Radar de pluja more information rain snow radar


Visita la nostra xarxa de llocs de meteo:

Template documentation
and downloads

And another site



No particular awareness of the weather is required.    There are no Weather-warnings

Pagina Historial Weather Underground text

Diari Resum May 22, 2017 Unitats:  Mètric    Imperial   Tant
« Previous Dia
SegĂźent Dia »
Diari Setmana Mensual Anual Personalitzada
  Maxima: Minima: Media:
Temperatura: 28.5 °C 15.6 °C 22.7 °C
Punt de rosada: 13.7 °C 8.8 °C 11 °C
Humitat: 76 % 36 % 49 %
Wind Speed: 20.4 km/h 0.0 km/h 7.2 km/h
RĂ fegues de vent: 20.4 km/h - -
Vent:- - SSW
Pression baro: 1019.9 hPa 1015.8 hPa -
Precipitacions: 0.0 mm    
Historical Graphs
 
 
Dades de taula per May 22, 2017
Temps Temperatura Punt de rosada Pression baro Vent Wind Speed RĂ fegues de vent Humitat Rainfall Rate (Hourly)
00:01 17.0 °C 9.7 °C 1019.9 hPa SW 3.7 km/h 3.7 km/h 62 % 0.0 mm
00:06 16.9 °C 9.8 °C 1019.9 hPa SW 2.3 km/h 2.3 km/h 63 % 0.0 mm
00:11 16.9 °C 10.1 °C 1019.9 hPa Calm     64 % 0.0 mm
00:16 16.9 °C 10.1 °C 1019.9 hPa SW 1.9 km/h   64 % 0.0 mm
04:40 20.0 °C 13.2 °C 1019.9 hPa SW 3.2 km/h 3.2 km/h 65 % 0.0 mm
04:50 20.7 °C 13.7 °C 1019.9 hPa SW 1.6 km/h 4.8 km/h 64 % 0.0 mm
04:55 20.4 °C 13.1 °C 1018.8 hPa SSW 4.8 km/h 9.7 km/h 63 % 0.0 mm
05:05 20.9 °C 13.1 °C 1018.8 hPa SSW 3.2 km/h 9.7 km/h 61 % 0.0 mm
05:15 21.0 °C 12.4 °C 1018.8 hPa SSW 4.8 km/h 8.0 km/h 58 % 0.0 mm
05:25 21.2 °C 12.6 °C 1018.8 hPa SSW 3.2 km/h 12.9 km/h 58 % 0.0 mm
10:33 21.9 °C 12.7 °C 1018.8 hPa SSW 7.4 km/h 7.4 km/h 56 % 0.0 mm
10:38 22.1 °C 12.3 °C 1018.8 hPa SW 7.4 km/h 7.4 km/h 54 % 0.0 mm
10:43 22.8 °C 13.0 °C 1018.8 hPa SW 7.4 km/h 7.4 km/h 54 % 0.0 mm
10:48 22.6 °C 12.8 °C 1018.8 hPa West 7.4 km/h 7.4 km/h 54 % 0.0 mm
10:53 23.1 °C 12.7 °C 1018.8 hPa SW 8.7 km/h 8.7 km/h 52 % 0.0 mm
10:58 23.5 °C 12.8 °C 1018.8 hPa SSW 9.3 km/h 9.3 km/h 51 % 0.0 mm
11:03 23.9 °C 12.8 °C 1018.8 hPa WSW 5.6 km/h 5.6 km/h 50 % 0.0 mm
11:08 23.5 °C 12.5 °C 1018.8 hPa SW 11.1 km/h 11.1 km/h 50 % 0.0 mm
11:13 23.4 °C 11.8 °C 1018.8 hPa SSW 13.0 km/h 13.0 km/h 48 % 0.0 mm
11:18 23.6 °C 11.6 °C 1018.8 hPa SW 9.3 km/h 9.3 km/h 47 % 0.0 mm
11:23 23.7 °C 11.7 °C 1019.9 hPa SSW 9.3 km/h 9.3 km/h 47 % 0.0 mm
11:28 24.3 °C 12.3 °C 1019.9 hPa SW 7.9 km/h 7.9 km/h 47 % 0.0 mm
11:33 24.1 °C 12.1 °C 1019.9 hPa ESE 9.3 km/h 9.3 km/h 47 % 0.0 mm
11:38 24.1 °C 12.1 °C 1018.8 hPa SSE 9.3 km/h 9.3 km/h 47 % 0.0 mm
11:43 24.4 °C 12.0 °C 1018.8 hPa South 13.0 km/h 13.0 km/h 46 % 0.0 mm
11:48 24.2 °C 11.8 °C 1018.8 hPa WSW 7.4 km/h 7.4 km/h 46 % 0.0 mm
11:53 25.0 °C 12.6 °C 1018.8 hPa WSW 5.6 km/h 5.6 km/h 46 % 0.0 mm
11:58 24.4 °C 12.0 °C 1018.8 hPa SW 13.0 km/h 13.0 km/h 46 % 0.0 mm
12:03 24.4 °C 12.3 °C 1018.8 hPa WSW 7.2 km/h 7.2 km/h 47 % 0.0 mm
12:08 24.4 °C 12.3 °C 1018.8 hPa SSW 14.8 km/h 14.8 km/h 47 % 0.0 mm
12:13 24.7 °C 12.9 °C 1018.8 hPa SW 9.3 km/h 9.3 km/h 48 % 0.0 mm
12:18 24.2 °C 12.2 °C 1018.8 hPa SW 14.8 km/h 14.8 km/h 47 % 0.0 mm
12:23 24.5 °C 12.4 °C 1018.8 hPa South 14.8 km/h 14.8 km/h 47 % 0.0 mm
12:28 25.0 °C 12.6 °C 1018.8 hPa SW 9.3 km/h 9.3 km/h 46 % 0.0 mm
12:33 25.4 °C 12.9 °C 1018.8 hPa West 11.9 km/h 11.9 km/h 46 % 0.0 mm
12:38 24.8 °C 12.1 °C 1018.8 hPa West 13.0 km/h 13.0 km/h 45 % 0.0 mm
12:43 24.9 °C 12.2 °C 1018.8 hPa SW 13.0 km/h 13.0 km/h 45 % 0.0 mm
12:48 25.1 °C 12.3 °C 1018.8 hPa SSW 15.8 km/h 15.8 km/h 45 % 0.0 mm
12:53 24.9 °C 12.2 °C 1018.8 hPa SW 9.3 km/h 9.3 km/h 45 % 0.0 mm
12:54 25.0 °C 11.9 °C 1018.8 hPa SW 9.3 km/h 9.3 km/h 44 % 0.0 mm
12:59 25.3 °C 11.8 °C 1018.8 hPa SSW 13.0 km/h 13.0 km/h 43 % 0.0 mm
13:04 25.6 °C 12.4 °C 1018.8 hPa SSE 9.7 km/h 9.7 km/h 44 % 0.0 mm
13:09 25.3 °C 12.2 °C 1017.8 hPa SSW 14.8 km/h 14.8 km/h 44 % 0.0 mm
13:14 25.0 °C 11.9 °C 1017.8 hPa SW 13.0 km/h 13.0 km/h 44 % 0.0 mm
13:19 25.3 °C 12.2 °C 1017.8 hPa SW 11.1 km/h 11.1 km/h 44 % 0.0 mm
13:24 25.2 °C 12.1 °C 1018.8 hPa SW 11.1 km/h 11.1 km/h 44 % 0.0 mm
13:29 25.6 °C 12.4 °C 1018.8 hPa South 9.3 km/h 9.3 km/h 44 % 0.0 mm
13:34 26.2 °C 13.0 °C 1018.8 hPa SW 6.9 km/h 6.9 km/h 44 % 0.0 mm
13:39 26.3 °C 13.1 °C 1018.8 hPa West 9.3 km/h 9.3 km/h 44 % 0.0 mm
13:44 26.5 °C 13.3 °C 1018.8 hPa WSW 9.3 km/h 9.3 km/h 44 % 0.0 mm
13:49 26.3 °C 13.1 °C 1018.8 hPa SSW 10.0 km/h 10.0 km/h 44 % 0.0 mm
13:54 26.1 °C 12.9 °C 1018.8 hPa WSW 11.1 km/h 11.1 km/h 44 % 0.0 mm
13:59 26.1 °C 12.6 °C 1018.8 hPa SSW 9.3 km/h 9.3 km/h 43 % 0.0 mm
14:04 26.1 °C 12.6 °C 1018.8 hPa WSW 9.3 km/h 9.3 km/h 43 % 0.0 mm
14:09 26.5 °C 12.9 °C 1018.8 hPa SSW 9.7 km/h 9.7 km/h 43 % 0.0 mm
14:14 26.1 °C 12.6 °C 1018.8 hPa SW 10.0 km/h 10.0 km/h 43 % 0.0 mm
14:19 26.4 °C 12.8 °C 1018.8 hPa NW 9.3 km/h 9.3 km/h 43 % 0.0 mm
14:24 26.5 °C 12.9 °C 1017.8 hPa SW 7.4 km/h 7.4 km/h 43 % 0.0 mm
14:29 26.5 °C 12.9 °C 1017.8 hPa WSW 9.0 km/h 9.0 km/h 43 % 0.0 mm
14:34 26.9 °C 12.9 °C 1017.8 hPa West 13.0 km/h 13.0 km/h 42 % 0.0 mm
14:39 26.7 °C 12.7 °C 1017.8 hPa East 11.1 km/h 11.1 km/h 42 % 0.0 mm
14:44 26.6 °C 12.6 °C 1017.8 hPa SW 9.3 km/h 9.3 km/h 42 % 0.0 mm
14:49 27.1 °C 12.7 °C 1017.8 hPa SSW 11.1 km/h 11.1 km/h 41 % 0.0 mm
14:54 27.2 °C 12.8 °C 1017.8 hPa WSW 10.0 km/h 10.0 km/h 41 % 0.0 mm
14:59 26.7 °C 12.7 °C 1017.8 hPa WSW 9.3 km/h 9.3 km/h 42 % 0.0 mm
15:04 26.6 °C 12.3 °C 1017.8 hPa WSW 13.0 km/h 13.0 km/h 41 % 0.0 mm
15:09 27.4 °C 13.0 °C 1017.8 hPa SSE 9.3 km/h 9.3 km/h 41 % 0.0 mm
15:14 27.7 °C 13.3 °C 1017.8 hPa SSE 7.4 km/h 7.4 km/h 41 % 0.0 mm
15:19 27.2 °C 12.4 °C 1017.8 hPa WSW 13.0 km/h 13.0 km/h 40 % 0.0 mm
15:24 27.0 °C 12.2 °C 1017.8 hPa SW 9.5 km/h 9.5 km/h 40 % 0.0 mm
15:29 27.1 °C 12.3 °C 1017.8 hPa SSW 5.6 km/h 5.6 km/h 40 % 0.0 mm
15:34 27.3 °C 12.1 °C 1017.8 hPa WSW 11.1 km/h 11.1 km/h 39 % 0.0 mm
15:39 27.7 °C 12.5 °C 1017.8 hPa SE 4.7 km/h 4.7 km/h 39 % 0.0 mm
15:44 27.8 °C 12.6 °C 1017.8 hPa WSW 7.4 km/h 7.4 km/h 39 % 0.0 mm
15:49 27.6 °C 12.0 °C 1017.8 hPa SSW 11.1 km/h 11.1 km/h 38 % 0.0 mm
15:54 27.2 °C 11.7 °C 1017.8 hPa WSW 9.3 km/h 9.3 km/h 38 % 0.0 mm
15:59 27.5 °C 12.3 °C 1017.8 hPa WSW 11.1 km/h 11.1 km/h 39 % 0.0 mm
16:04 27.6 °C 12.0 °C 1017.8 hPa WSW 18.5 km/h 18.5 km/h 38 % 0.0 mm
16:09 27.5 °C 11.9 °C 1017.8 hPa SSE 11.1 km/h 11.1 km/h 38 % 0.0 mm
16:14 27.8 °C 12.2 °C 1017.8 hPa SW 5.6 km/h 5.6 km/h 38 % 0.0 mm
16:19 28.1 °C 12.4 °C 1017.8 hPa SW 9.3 km/h 9.3 km/h 38 % 0.0 mm
16:24 28.2 °C 12.1 °C 1016.8 hPa SW 9.3 km/h 9.3 km/h 37 % 0.0 mm
16:29 28.1 °C 12.1 °C 1016.8 hPa SSW 3.7 km/h 6.1 km/h 37 % 0.0 mm
16:31 28.4 °C 12.3 °C 1016.8 hPa South 9.3 km/h 9.3 km/h 37 % 0.0 mm
16:36 28.5 °C 12.4 °C 1016.8 hPa SW 5.6 km/h 5.6 km/h 37 % 0.0 mm
16:41 27.4 °C 11.4 °C 1017.8 hPa SSW 13.0 km/h 13.0 km/h 37 % 0.0 mm
16:46 27.3 °C 11.3 °C 1017.8 hPa SW 14.8 km/h 14.8 km/h 37 % 0.0 mm
16:51 27.2 °C 11.2 °C 1017.8 hPa WSW 13.0 km/h 13.0 km/h 37 % 0.0 mm
16:56 27.0 °C 10.7 °C 1017.8 hPa SW 18.5 km/h 18.5 km/h 36 % 0.0 mm
17:01 26.7 °C 10.8 °C 1017.8 hPa SSW 9.3 km/h 9.3 km/h 37 % 0.0 mm
17:06 26.8 °C 10.9 °C 1017.8 hPa SW 11.1 km/h 11.1 km/h 37 % 0.0 mm
17:11 26.7 °C 10.8 °C 1017.8 hPa SSW 13.0 km/h 13.0 km/h 37 % 0.0 mm
17:16 27.4 °C 11.0 °C 1017.8 hPa WSW 9.3 km/h 9.3 km/h 36 % 0.0 mm
17:21 26.9 °C 11.0 °C 1017.8 hPa SW 16.7 km/h 16.7 km/h 37 % 0.0 mm
17:26 26.5 °C 10.6 °C 1017.8 hPa SSE 20.4 km/h 20.4 km/h 37 % 0.0 mm
17:31 26.3 °C 10.4 °C 1017.8 hPa SW 16.7 km/h 16.7 km/h 37 % 0.0 mm
17:36 25.9 °C 10.1 °C 1017.8 hPa SSW 14.8 km/h 14.8 km/h 37 % 0.0 mm
17:42 25.9 °C 10.1 °C 1016.8 hPa WSW 16.7 km/h 16.7 km/h 37 % 0.0 mm
17:47 25.5 °C 9.7 °C 1016.8 hPa WSW 14.8 km/h 14.8 km/h 37 % 0.0 mm
17:52 25.3 °C 9.6 °C 1016.8 hPa SSW 13.0 km/h 13.0 km/h 37 % 0.0 mm
17:57 25.4 °C 9.7 °C 1017.8 hPa WSW 11.1 km/h 11.1 km/h 37 % 0.0 mm
18:02 25.3 °C 9.6 °C 1017.8 hPa West 14.8 km/h 14.8 km/h 37 % 0.0 mm
18:07 25.2 °C 9.4 °C 1017.8 hPa SW 9.3 km/h 9.3 km/h 37 % 0.0 mm
18:12 24.9 °C 9.6 °C 1017.8 hPa SW 11.1 km/h 11.1 km/h 38 % 0.0 mm
18:17 24.7 °C 9.4 °C 1017.8 hPa South 11.1 km/h 11.1 km/h 38 % 0.0 mm
18:22 24.8 °C 9.5 °C 1017.8 hPa WSW 9.5 km/h 9.5 km/h 38 % 0.0 mm
18:27 24.6 °C 9.3 °C 1017.8 hPa SW 16.7 km/h 16.7 km/h 38 % 0.0 mm
18:32 24.7 °C 9.4 °C 1017.8 hPa SSE 9.3 km/h 9.3 km/h 38 % 0.0 mm
18:37 24.7 °C 9.4 °C 1016.8 hPa WSW 14.8 km/h 14.8 km/h 38 % 0.0 mm
18:42 24.3 °C 9.4 °C 1016.8 hPa SW 12.6 km/h 12.6 km/h 39 % 0.0 mm
18:47 24.4 °C 9.6 °C 1016.8 hPa WSW 11.1 km/h 11.1 km/h 39 % 0.0 mm
18:52 24.5 °C 9.6 °C 1016.8 hPa SW 10.3 km/h 10.3 km/h 39 % 0.0 mm
18:57 24.4 °C 9.6 °C 1016.8 hPa SW 7.4 km/h 7.4 km/h 39 % 0.0 mm
19:02 24.5 °C 9.6 °C 1016.8 hPa WSW 7.4 km/h 7.4 km/h 39 % 0.0 mm
19:07 24.4 °C 9.6 °C 1017.8 hPa SSW 9.3 km/h 9.3 km/h 39 % 0.0 mm
19:12 24.3 °C 9.8 °C 1017.8 hPa SW 7.9 km/h 7.9 km/h 40 % 0.0 mm
19:17 24.1 °C 9.3 °C 1017.8 hPa SW 9.3 km/h 9.3 km/h 39 % 0.0 mm
19:22 24.1 °C 9.7 °C 1015.8 hPa SW 5.6 km/h 5.6 km/h 40 % 0.0 mm
19:25 17.1 °C 9.8 °C 1018.8 hPa WSW 1.6 km/h 3.2 km/h 62 % 0.0 mm
19:27 23.9 °C 9.5 °C 1015.8 hPa SW 7.4 km/h 7.4 km/h 40 % 0.0 mm
19:32 23.8 °C 9.4 °C 1015.8 hPa SSW 5.6 km/h 5.6 km/h 40 % 0.0 mm
19:35 17.0 °C 9.9 °C 1018.8 hPa WSW 1.6 km/h 3.2 km/h 63 % 0.0 mm
19:37 23.8 °C 9.4 °C 1015.8 hPa SW 9.5 km/h 9.5 km/h 40 % 0.0 mm
19:43 23.6 °C 9.2 °C 1015.8 hPa SW 11.1 km/h 11.1 km/h 40 % 0.0 mm
19:45 16.8 °C 9.9 °C 1018.8 hPa WSW 3.2 km/h 4.8 km/h 64 % 0.0 mm
19:48 23.5 °C 9.1 °C 1015.8 hPa WSW 5.6 km/h 5.6 km/h 40 % 0.0 mm
19:53 23.4 °C 9.0 °C 1015.8 hPa WSW 7.9 km/h 7.9 km/h 40 % 0.0 mm
19:55 16.7 °C 9.8 °C 1019.9 hPa Calm   1.6 km/h 64 % 0.0 mm
19:58 23.2 °C 8.8 °C 1015.8 hPa SW 5.6 km/h 5.6 km/h 40 % 0.0 mm
20:03 23.1 °C 8.8 °C 1015.8 hPa WSW 3.7 km/h 3.7 km/h 40 % 0.0 mm
20:05 16.6 °C 9.8 °C 1019.9 hPa Calm     64 % 0.0 mm
20:08 23.1 °C 8.8 °C 1015.8 hPa WSW 3.7 km/h   40 % 0.0 mm
20:13 23.1 °C 8.8 °C 1015.8 hPa WNW 3.7 km/h 3.7 km/h 40 % 0.0 mm
20:15 16.6 °C 9.8 °C 1019.9 hPa Calm     64 % 0.0 mm
20:18 22.8 °C 8.8 °C 1015.8 hPa WSW 5.6 km/h 5.6 km/h 41 % 0.0 mm
20:20 22.8 °C 8.8 °C 1015.8 hPa West 3.7 km/h 3.7 km/h 41 % 0.0 mm
20:25 22.7 °C 8.8 °C 1015.8 hPa Calm   3.2 km/h 41 % 0.0 mm
20:26 22.5 °C 8.9 °C 1015.8 hPa SE 3.7 km/h 3.7 km/h 42 % 0.0 mm
20:29 22.1 °C 8.9 °C 1015.8 hPa East 7.4 km/h 7.4 km/h 43 % 0.0 mm
20:31 21.9 °C 9.1 °C 1015.8 hPa East 7.4 km/h 7.4 km/h 44 % 0.0 mm
20:35 16.5 °C 10.1 °C 1019.9 hPa ENE 1.6 km/h 3.2 km/h 66 % 0.0 mm
20:36 21.6 °C 9.2 °C 1015.8 hPa ESE 9.3 km/h 9.3 km/h 45 % 0.0 mm
20:41 21.4 °C 9.3 °C 1015.8 hPa East 9.3 km/h 9.3 km/h 46 % 0.0 mm
20:42 21.4 °C 9.3 °C 1015.8 hPa East 9.3 km/h 9.3 km/h 46 % 0.0 mm
20:45 16.2 °C 9.8 °C 1018.8 hPa Calm   1.6 km/h 66 % 0.0 mm
20:47 21.2 °C 9.4 °C 1015.8 hPa ESE 7.4 km/h 7.4 km/h 47 % 0.0 mm
20:52 21.0 °C 9.6 °C 1015.8 hPa ESE 7.4 km/h 7.4 km/h 48 % 0.0 mm
20:55 16.2 °C 10.1 °C 1019.9 hPa Calm     67 % 0.0 mm
20:57 20.8 °C 9.7 °C 1015.8 hPa ENE 5.6 km/h 5.6 km/h 49 % 0.0 mm
21:02 20.6 °C 9.8 °C 1015.8 hPa NE 3.7 km/h 3.7 km/h 50 % 0.0 mm
21:05 16.3 °C 10.4 °C 1019.9 hPa NE 1.6 km/h 4.8 km/h 68 % 0.0 mm
21:07 20.5 °C 10.0 °C 1016.8 hPa ENE 3.9 km/h 3.9 km/h 51 % 0.0 mm
21:12 20.4 °C 9.9 °C 1016.8 hPa ENE 5.6 km/h 5.6 km/h 51 % 0.0 mm
21:15 16.1 °C 10.4 °C 1019.9 hPa Calm   1.6 km/h 69 % 0.0 mm
21:17 20.3 °C 10.1 °C 1016.8 hPa ESE 3.9 km/h 3.9 km/h 52 % 0.0 mm
21:23 20.2 °C 10.0 °C 1017.8 hPa East 3.7 km/h 3.7 km/h 52 % 0.0 mm
21:25 16.0 °C 10.3 °C 1019.9 hPa Calm   1.6 km/h 69 % 0.0 mm
21:28 20.2 °C 10.0 °C 1017.8 hPa SW 1.9 km/h 1.9 km/h 52 % 0.0 mm
21:33 20.1 °C 9.9 °C 1017.8 hPa WSW 3.7 km/h   52 % 0.0 mm
21:35 16.0 °C 10.6 °C 1019.9 hPa Calm     70 % 0.0 mm
21:38 20.0 °C 9.8 °C 1017.8 hPa Calm     52 % 0.0 mm
21:43 19.9 °C 10.1 °C 1017.8 hPa NNE 3.7 km/h 3.7 km/h 53 % 0.0 mm
21:45 16.0 °C 10.7 °C 1019.9 hPa Calm     71 % 0.0 mm
21:48 19.9 °C 10.3 °C 1017.8 hPa NNE 3.9 km/h 3.9 km/h 54 % 0.0 mm
21:53 19.9 °C 10.3 °C 1017.8 hPa NE 5.6 km/h 5.6 km/h 54 % 0.0 mm
21:55 16.0 °C 10.9 °C 1019.9 hPa NNE 1.6 km/h 1.6 km/h 72 % 0.0 mm
21:58 19.7 °C 10.4 °C 1017.8 hPa ENE 5.6 km/h 5.6 km/h 55 % 0.0 mm
22:03 19.5 °C 10.2 °C 1017.8 hPa NNE 5.6 km/h 5.6 km/h 55 % 0.0 mm
22:05 16.0 °C 11.2 °C 1019.9 hPa NE 1.6 km/h 3.2 km/h 73 % 0.0 mm
22:08 19.4 °C 10.4 °C 1017.8 hPa East 3.7 km/h 3.7 km/h 56 % 0.0 mm
22:13 19.3 °C 10.3 °C 1017.8 hPa NNE 5.6 km/h 5.6 km/h 56 % 0.0 mm
22:15 15.9 °C 11.3 °C 1019.9 hPa Calm   3.2 km/h 74 % 0.0 mm
22:18 19.2 °C 10.4 °C 1017.8 hPa ENE 3.7 km/h 3.7 km/h 57 % 0.0 mm
22:23 19.1 °C 10.4 °C 1018.8 hPa NE 3.7 km/h 3.7 km/h 57 % 0.0 mm
22:25 15.9 °C 11.3 °C 1019.9 hPa Calm   1.6 km/h 74 % 0.0 mm
22:28 19.1 °C 10.4 °C 1018.8 hPa East 3.7 km/h 3.7 km/h 57 % 0.0 mm
22:33 19.0 °C 10.3 °C 1018.8 hPa West 3.7 km/h 3.7 km/h 57 % 0.0 mm
22:35 15.9 °C 11.3 °C 1019.9 hPa Calm   1.6 km/h 74 % 0.0 mm
22:38 18.8 °C 10.3 °C 1018.8 hPa SW 3.7 km/h 3.7 km/h 58 % 0.0 mm
22:43 18.6 °C 10.4 °C 1018.8 hPa WSW 1.9 km/h   59 % 0.0 mm
22:45 15.9 °C 11.3 °C 1018.8 hPa NNW 1.6 km/h 3.2 km/h 74 % 0.0 mm
22:48 18.6 °C 10.4 °C 1018.8 hPa Calm     59 % 0.0 mm
22:53 18.5 °C 10.3 °C 1018.8 hPa Calm     59 % 0.0 mm
22:55 15.9 °C 11.4 °C 1019.9 hPa Calm   1.6 km/h 75 % 0.0 mm
22:59 18.5 °C 10.3 °C 1018.8 hPa WSW 1.9 km/h   59 % 0.0 mm
23:04 18.5 °C 10.6 °C 1018.8 hPa Calm     60 % 0.0 mm
23:05 15.9 °C 11.4 °C 1019.9 hPa WNW 1.6 km/h 3.2 km/h 75 % 0.0 mm
23:09 18.5 °C 10.6 °C 1018.8 hPa Calm     60 % 0.0 mm
23:14 18.4 °C 10.5 °C 1018.8 hPa Calm     60 % 0.0 mm
23:15 15.8 °C 11.6 °C 1018.8 hPa Calm   1.6 km/h 76 % 0.0 mm
23:19 18.4 °C 10.7 °C 1018.8 hPa Calm     61 % 0.0 mm
23:24 18.4 °C 10.7 °C 1018.8 hPa NNE 1.9 km/h 1.9 km/h 61 % 0.0 mm
23:25 15.6 °C 11.4 °C 1019.9 hPa Calm   3.2 km/h 76 % 0.0 mm
23:30 18.3 °C 10.7 °C 1018.8 hPa NNW 1.9 km/h 1.9 km/h 61 % 0.0 mm
23:35 18.3 °C 10.7 °C 1018.8 hPa NE 3.2 km/h   61 % 0.0 mm
23:40 18.3 °C 10.7 °C 1018.8 hPa NNE 3.5 km/h   61 % 0.0 mm
23:45 18.2 °C 10.6 °C 1018.8 hPa NE 1.6 km/h 4.8 km/h 61 % 0.0 mm
23:50 18.0 °C 10.6 °C 1018.8 hPa NE 3.7 km/h 3.7 km/h 62 % 0.0 mm
23:55 17.9 °C 10.5 °C 1018.8 hPa ENE 2.6 km/h 2.6 km/h 62 % 0.0 mm
Meteo Sesrovires
Elogis d' Weather Underground - 3.5 mb

Guio original per  Jim McMurry - jmcmurry@mwt.net Adaptat per a la plantilla per  Wim van der Kuil - Leuven-Template.eu

Trobareu la nostra informacio del temps tambe a:

Weather Underground

AWEKAS